Time;durP1;ratioP1;P1;durP2;ratioP2;P2;SDS_P1;SDS_P2;PMS_P1;PMS_P2;Temp;Humidity;BMP_temperature;BMP_pressure;BME280_temperature;BME280_humidity;BME280_pressure;Samples;Min_cycle;Max_cycle;Signal;HPM_P1;HPM_P2
2022/03/05 00:00:27;;;;;;;;;53.50;41.00;;;;;9.59;69.13;101580.97;5069854;28;45384;-77
2022/03/05 00:02:52;;;;;;;;;52.00;41.00;;;;;9.53;69.67;101570.19;5078705;27;45838;-76
2022/03/05 00:05:18;;;;;;;;;46.75;38.75;;;;;9.35;70.00;101534.28;5077877;28;45376;-76
2022/03/05 00:07:43;;;;;;;;;55.25;44.25;;;;;9.52;69.46;101557.81;5077174;28;47354;-78
2022/03/05 00:10:09;;;;;;;;;56.75;43.75;;;;;9.59;69.87;101565.16;5070271;27;45310;-76
2022/03/05 00:12:35;;;;;;;;;55.50;44.50;;;;;9.54;69.75;101559.66;5078674;27;45431;-76
2022/03/05 00:15:00;;;;;;;;;58.50;43.50;;;;;9.47;69.64;101543.53;5070229;27;45181;-77
2022/03/05 00:17:26;;;;;;;;;53.50;41.50;;;;;9.61;68.79;101560.84;5078422;27;45283;-77
2022/03/05 00:19:52;;;;;;;;;54.00;41.75;;;;;9.43;69.07;101539.84;5069505;27;45315;-77
2022/03/05 00:22:17;;;;;;;;;56.50;43.75;;;;;9.32;68.42;101513.03;5070181;28;45591;-78
2022/03/05 00:24:42;;;;;;;;;49.00;40.25;;;;;9.41;68.90;101528.38;5070902;27;45379;-78
2022/03/05 00:27:08;;;;;;;;;49.75;38.75;;;;;8.95;69.57;101450.88;5070543;28;45220;-77
2022/03/05 00:29:33;;;;;;;;;59.00;45.25;;;;;9.60;70.43;101566.94;5073521;28;45215;-77
2022/03/05 00:31:59;;;;;;;;;55.75;42.50;;;;;9.33;69.75;101513.97;5070355;28;45306;-77
2022/03/05 00:34:24;;;;;;;;;51.75;44.00;;;;;9.61;68.74;101560.84;5075937;27;45284;-77
2022/03/05 00:36:50;;;;;;;;;57.00;40.75;;;;;9.61;69.38;101563.47;5077511;28;45292;-76
2022/03/05 00:39:16;;;;;;;;;58.00;45.50;;;;;9.60;70.07;101565.19;5078160;27;45339;-77
2022/03/05 00:41:41;;;;;;;;;57.25;45.00;;;;;9.36;70.02;101514.97;5070228;27;45387;-77
2022/03/05 00:44:06;;;;;;;;;55.50;44.25;;;;;9.50;70.76;101539.28;5078048;28;45302;-76
2022/03/05 00:46:32;;;;;;;;;55.50;43.25;;;;;9.58;70.08;101552.81;5071156;28;45236;-77
2022/03/05 00:48:58;;;;;;;;;50.75;41.50;;;;;9.61;70.03;101559.09;5076668;28;45587;-76
2022/03/05 00:51:23;;;;;;;;;55.50;43.75;;;;;9.57;69.01;101543.94;5072889;28;46205;-76
2022/03/05 00:53:48;;;;;;;;;56.50;44.75;;;;;9.64;69.83;101555.69;5073024;27;45367;-76
2022/03/05 00:56:14;;;;;;;;;55.00;44.00;;;;;9.43;69.16;101517.84;5073649;28;45425;-77
2022/03/05 00:58:39;;;;;;;;;51.75;40.75;;;;;9.52;69.15;101531.41;5074074;27;45380;-75
2022/03/05 01:01:05;;;;;;;;;50.75;41.25;;;;;9.58;69.65;101542.25;5072067;28;47038;-77
2022/03/05 01:03:30;;;;;;;;;50.75;41.25;;;;;9.68;69.42;101549.66;5076599;27;45389;-75
2022/03/05 01:05:56;;;;;;;;;57.50;41.75;;;;;9.63;70.12;101535.38;5078977;28;45205;-76
2022/03/05 01:08:21;;;;;;;;;59.00;45.25;;;;;9.52;69.58;101510.28;5076342;28;45212;-77
2022/03/05 01:10:47;;;;;;;;;55.00;42.50;;;;;9.79;69.62;101558.03;5070960;28;46294;-76
2022/03/05 01:13:12;;;;;;;;;51.25;40.00;;;;;9.81;69.55;101561.63;5076766;27;45382;-78
2022/03/05 01:15:38;;;;;;;;;58.00;43.25;;;;;9.69;69.16;101535.66;5070792;28;45347;-76
2022/03/05 01:18:03;;;;;;;;;59.25;45.75;;;;;9.84;68.88;101560.00;5079434;28;45255;-76
2022/03/05 01:20:29;;;;;;;;;55.75;40.00;;;;;9.73;68.35;101537.56;5071740;28;45252;-76
2022/03/05 01:22:55;;;;;;;;;58.50;45.50;;;;;9.83;69.56;101566.13;5077139;28;45177;-76
2022/03/05 01:25:20;;;;;;;;;55.75;45.25;;;;;9.77;68.92;101542.09;5072807;27;45347;-77
2022/03/05 01:27:45;;;;;;;;;55.00;44.25;;;;;9.79;68.49;101548.34;5077921;28;47067;-77
2022/03/05 01:30:11;;;;;;;;;55.50;43.75;;;;;9.52;69.52;101497.09;5074089;27;45286;-78
2022/03/05 01:32:37;;;;;;;;;58.00;42.75;;;;;9.84;69.46;101556.47;5078776;28;45495;-78
2022/03/05 01:35:02;;;;;;;;;51.75;40.50;;;;;9.84;69.51;101561.75;5075530;27;45280;-77
2022/03/05 01:37:28;;;;;;;;;58.50;46.75;;;;;9.62;69.62;101530.94;5078899;28;46696;-77
2022/03/05 01:39:53;;;;;;;;;56.50;43.25;;;;;9.83;69.72;101559.94;5076480;27;45331;-78
2022/03/05 01:42:23;;;;;;;;;56.75;43.75;;;;;9.79;69.35;101556.28;5077325;28;45847;-78
2022/03/05 01:44:49;;;;;;;;;50.50;38.25;;;;;9.83;69.34;101562.56;5077169;27;45227;-77
2022/03/05 01:47:14;;;;;;;;;56.50;42.25;;;;;9.77;69.54;101549.13;5078805;28;45464;-78
2022/03/05 01:49:39;;;;;;;;;57.50;42.50;;;;;9.70;69.63;101540.06;5077977;27;45327;-78
2022/03/05 01:52:05;;;;;;;;;57.50;43.00;;;;;9.77;69.15;101549.13;5077906;28;45305;-76
2022/03/05 01:54:31;;;;;;;;;52.50;42.00;;;;;9.47;69.44;101499.56;5078038;28;45493;-78
2022/03/05 01:56:57;;;;;;;;;56.00;41.50;;;;;9.83;69.17;101554.66;5081020;27;45521;-78
2022/03/05 01:59:23;;;;;;;;;59.25;46.50;;;;;9.77;69.44;101560.59;5080071;28;45476;-77
2022/03/05 02:01:49;;;;;;;;;56.75;44.50;;;;;9.76;68.75;101552.63;5077235;28;45605;-78
2022/03/05 02:04:14;;;;;;;;;51.50;44.00;;;;;9.83;68.86;101562.56;5072173;28;45434;-77
2022/03/05 02:06:40;;;;;;;;;54.75;44.25;;;;;9.77;69.46;101568.50;5079291;28;46143;-77
2022/03/05 02:09:05;;;;;;;;;52.50;41.00;;;;;9.55;69.29;101534.16;5073375;27;46229;-77
2022/03/05 02:11:31;;;;;;;;;51.50;42.00;;;;;9.67;69.01;101562.81;5079284;28;45343;-76
2022/03/05 02:13:56;;;;;;;;;55.00;40.00;;;;;9.55;69.87;101542.09;5074832;27;45217;-77
2022/03/05 02:16:22;;;;;;;;;57.25;45.00;;;;;9.46;70.00;101531.16;5076419;28;45319;-77
2022/03/05 02:18:49;;;;;;;;;50.00;41.00;;;;;9.62;69.57;101563.53;5075554;28;47236;-76
2022/03/05 02:21:16;;;;;;;;;51.00;39.50;;;;;9.41;69.51;101525.72;5076655;28;45197;-77
2022/03/05 02:23:42;;;;;;;;;59.75;45.00;;;;;9.61;69.98;101560.84;5075845;28;45509;-77
2022/03/05 02:26:08;;;;;;;;;60.00;44.50;;;;;9.47;69.86;101538.28;5069392;27;45342;-77
2022/03/05 02:28:35;;;;;;;;;54.50;41.25;;;;;9.59;69.62;101554.59;5078916;28;46153;-77
2022/03/05 02:31:01;;;;;;;;;54.75;44.00;;;;;9.50;70.58;101548.94;5078631;28;45216;-78
2022/03/05 02:33:27;;;;;;;;;59.00;46.00;;;;;9.43;69.98;101524.03;5080229;27;45287;-77
2022/03/05 02:35:52;;;;;;;;;51.75;42.50;;;;;9.45;69.66;101534.66;5079365;28;46358;-77
2022/03/05 02:38:20;;;;;;;;;59.00;43.25;;;;;9.53;70.29;101551.72;5079916;28;45984;-77
2022/03/05 02:40:47;;;;;;;;;56.50;44.25;;;;;9.47;70.34;101531.25;5080595;27;45556;-76
2022/03/05 02:43:13;;;;;;;;;56.50;42.00;;;;;9.18;69.18;101480.81;5080361;28;45453;-77
2022/03/05 02:45:38;;;;;;;;;56.75;45.50;;;;;9.52;70.43;101542.91;5073856;27;45360;-77
2022/03/05 02:48:06;;;;;;;;;50.50;40.75;;;;;9.52;70.19;101542.91;5079807;28;46465;-76
2022/03/05 02:50:32;;;;;;;;;54.25;43.00;;;;;9.53;69.30;101541.16;5074596;27;45310;-79
2022/03/05 02:52:58;;;;;;;;;49.75;39.25;;;;;9.39;70.13;101515.09;5079064;28;45526;-77
2022/03/05 02:55:24;;;;;;;;;50.50;41.50;;;;;9.53;69.30;101533.22;5071387;27;45252;-77
2022/03/05 02:57:49;;;;;;;;;57.75;42.50;;;;;9.39;69.92;101514.19;5079597;27;45258;-77
2022/03/05 03:00:15;;;;;;;;;61.00;44.50;;;;;9.46;69.88;101510.06;5071083;27;45403;-77
2022/03/05 03:02:41;;;;;;;;;54.50;41.50;;;;;9.38;70.13;101508.03;5079814;28;45334;-77
2022/03/05 03:05:07;;;;;;;;;52.75;40.00;;;;;9.33;70.08;101501.66;5071121;27;45320;-77
2022/03/05 03:07:32;;;;;;;;;57.50;45.25;;;;;9.29;70.07;101499.72;5079821;27;45362;-77
2022/03/05 03:09:58;;;;;;;;;53.75;42.25;;;;;9.48;69.99;101524.22;5070964;27;45314;-76
2022/03/05 03:12:25;;;;;;;;;58.25;43.25;;;;;9.33;70.45;101500.75;5079736;27;45307;-77
2022/03/05 03:14:50;;;;;;;;;51.00;40.50;;;;;9.48;70.35;101529.50;5070944;27;45241;-77
2022/03/05 03:17:17;;;;;;;;;53.50;44.00;;;;;9.43;70.23;101509.94;5071057;28;46521;-76
2022/03/05 03:19:42;;;;;;;;;55.75;41.25;;;;;9.27;70.49;101492.56;5078418;28;45255;-77
2022/03/05 03:22:08;;;;;;;;;55.25;43.25;;;;;9.15;70.38;101469.25;5080547;27;45258;-77
2022/03/05 03:24:34;;;;;;;;;55.50;42.75;;;;;9.48;69.95;101525.13;5074787;28;46101;-76
2022/03/05 03:27:00;;;;;;;;;54.75;40.00;;;;;9.48;70.49;101525.13;5071668;28;45472;-77
2022/03/05 03:29:25;;;;;;;;;50.25;39.75;;;;;9.50;70.44;101530.47;5078186;28;45445;-78
2022/03/05 03:31:50;;;;;;;;;55.75;42.25;;;;;9.33;69.90;101491.09;5071623;28;45473;-78
2022/03/05 03:34:16;;;;;;;;;56.50;43.00;;;;;9.50;70.45;101528.72;5077258;28;46057;-77
2022/03/05 03:36:41;;;;;;;;;56.25;42.75;;;;;9.16;70.06;101465.78;5069695;28;48167;-77
2022/03/05 03:39:06;;;;;;;;;46.50;39.75;;;;;9.36;70.06;101504.41;5078972;27;45362;-77
2022/03/05 03:41:32;;;;;;;;;54.50;43.50;;;;;9.54;69.94;101528.00;5072794;27;45358;-77
2022/03/05 03:43:57;;;;;;;;;56.50;43.75;;;;;9.22;70.39;101479.22;5078844;28;45414;-77
2022/03/05 03:46:22;;;;;;;;;52.25;44.25;;;;;9.53;69.89;101522.69;5073565;27;45291;-78
2022/03/05 03:48:48;;;;;;;;;53.50;40.25;;;;;9.53;70.32;101526.22;5078533;28;45365;-78
2022/03/05 03:51:13;;;;;;;;;54.75;43.50;;;;;9.34;70.04;101497.28;5074451;28;45439;-77
2022/03/05 03:53:38;;;;;;;;;45.75;36.00;;;;;9.27;70.32;101484.66;5075497;27;45403;-77
2022/03/05 03:56:05;;;;;;;;;38.25;32.50;;;;;9.51;70.34;101526.97;5073799;28;45370;-75
2022/03/05 03:58:30;;;;;;;;;52.50;40.50;;;;;9.49;69.26;101526.00;5076780;27;45421;-78
2022/03/05 04:00:55;;;;;;;;;50.75;43.00;;;;;9.48;69.54;101525.13;5072694;28;45271;-79
2022/03/05 04:03:21;;;;;;;;;49.25;40.00;;;;;9.47;70.46;101520.69;5077909;27;45308;-75
2022/03/05 04:05:46;;;;;;;;;47.25;40.00;;;;;9.49;70.67;101520.72;5071130;28;45346;-78
2022/03/05 04:10:56;;;;;;;;;47.00;38.25;;;;;9.05;69.99;101454.78;5072637;28;45416;-78
2022/03/05 04:13:21;;;;;;;;;46.50;37.50;;;;;9.41;70.11;101531.91;5078521;27;45244;-78
2022/03/05 04:15:46;;;;;;;;;39.50;35.25;;;;;9.39;69.09;101532.66;5074588;28;46920;-78
2022/03/05 04:18:12;;;;;;;;;47.50;38.25;;;;;9.35;69.55;101533.38;5073109;28;45386;-78
2022/03/05 04:20:38;;;;;;;;;44.75;37.00;;;;;9.08;68.92;101488.31;5067248;28;45321;-77
2022/03/05 04:23:04;;;;;;;;;43.75;37.00;;;;;9.35;69.68;101536.00;5074836;28;45688;-77
2022/03/05 04:25:29;;;;;;;;;39.00;34.75;;;;;9.35;69.79;101538.63;5069543;27;45446;-77
2022/03/05 04:27:54;;;;;;;;;42.00;36.00;;;;;9.35;69.32;101531.66;5076122;28;45335;-76
2022/03/05 04:30:20;;;;;;;;;39.00;34.50;;;;;9.36;69.34;101535.19;5070621;28;45367;-76
2022/03/05 04:32:46;;;;;;;;;47.75;38.00;;;;;9.16;69.20;101497.44;5077262;28;45386;-77
2022/03/05 04:35:11;;;;;;;;;34.75;32.50;;;;;9.36;68.66;101535.19;5074241;28;48592;-76
2022/03/05 04:37:37;;;;;;;;;44.00;38.75;;;;;9.25;69.11;101518.91;5076975;28;45247;-76
2022/03/05 04:40:04;;;;;;;;;45.75;36.00;;;;;9.29;69.09;101534.00;5079157;27;45443;-76
2022/03/05 04:42:29;;;;;;;;;44.50;34.00;;;;;9.06;69.09;101500.53;5078413;27;45364;-76
2022/03/05 04:44:55;;;;;;;;;33.25;29.00;;;;;9.01;68.84;101502.06;5074106;28;45369;-76
2022/03/05 04:47:20;;;;;;;;;41.25;36.50;;;;;9.03;69.43;101517.13;5078806;28;45310;-77
2022/03/05 04:49:45;;;;;;;;;34.25;31.00;;;;;9.08;69.16;101526.13;5078815;27;45456;-76
2022/03/05 04:52:11;;;;;;;;;35.50;30.00;;;;;9.11;69.25;101528.00;5096528;27;45848;-77
2022/03/05 04:54:36;;;;;;;;;37.00;30.75;;;;;8.95;69.39;101508.88;5071736;28;45340;-76
2022/03/05 04:57:03;;;;;;;;;35.75;31.75;;;;;9.18;68.95;101549.38;5082123;27;45489;-77
2022/03/05 04:59:29;;;;;;;;;40.00;29.75;;;;;8.88;69.64;101493.66;5072757;28;45272;-76
2022/03/05 05:01:56;;;;;;;;;43.00;35.50;;;;;8.93;69.70;101501.72;5082033;27;45264;-76
2022/03/05 05:04:21;;;;;;;;;43.25;36.25;;;;;8.61;69.78;101456.47;5072284;27;46410;-76
2022/03/05 05:06:47;;;;;;;;;45.75;35.50;;;;;9.03;69.61;101534.69;5082168;28;45343;-76
2022/03/05 05:09:12;;;;;;;;;36.25;32.25;;;;;9.04;69.74;101541.75;5073749;27;45419;-76
2022/03/05 05:11:38;;;;;;;;;41.00;31.50;;;;;9.03;69.55;101545.22;5080863;28;45476;-76
2022/03/05 05:14:03;;;;;;;;;39.75;32.75;;;;;8.87;70.16;101527.84;5074821;27;46066;-77
2022/03/05 05:16:29;;;;;;;;;44.25;33.00;;;;;8.95;69.76;101539.63;5079349;28;45315;-76
2022/03/05 05:21:38;;;;;;;;;38.00;31.00;;;;;9.05;69.32;101556.75;5069445;28;45457;-76
2022/03/05 05:24:04;;;;;;;;;42.00;35.75;;;;;8.83;70.05;101520.66;5076737;28;47176;-76
2022/03/05 05:26:30;;;;;;;;;27.50;27.25;;;;;8.98;70.02;101541.50;5078041;28;45686;-77
2022/03/05 05:28:55;;;;;;;;;44.50;34.50;;;;;8.84;69.40;101520.69;5076593;28;45466;-76
2022/03/05 05:31:20;;;;;;;;;44.75;35.50;;;;;9.01;68.85;101558.34;5070682;28;45575;-77
2022/03/05 05:33:46;;;;;;;;;42.75;36.00;;;;;8.94;70.07;101548.38;5080863;28;46412;-78
2022/03/05 05:36:12;;;;;;;;;42.00;36.25;;;;;9.01;69.58;101560.06;5072585;28;45506;-75
2022/03/05 05:38:39;;;;;;;;;48.50;35.75;;;;;8.97;69.98;101569.59;5081145;28;45228;-77
2022/03/05 05:41:04;;;;;;;;;39.25;33.00;;;;;8.88;69.60;101550.75;5073717;27;45448;-77
2022/03/05 05:43:30;;;;;;;;;44.00;34.00;;;;;8.92;68.94;101565.84;5080916;28;45224;-77
2022/03/05 05:45:55;;;;;;;;;43.00;34.00;;;;;8.72;69.95;101528.97;5074542;27;45347;-80
2022/03/05 05:48:20;;;;;;;;;37.50;32.25;;;;;8.86;70.17;101560.31;5080997;28;45211;-76
2022/03/05 05:50:46;;;;;;;;;43.25;37.25;;;;;8.92;70.33;101573.75;5076227;27;45413;-77
2022/03/05 05:53:11;;;;;;;;;48.50;38.00;;;;;8.90;69.03;101570.16;5080723;27;45358;-78
2022/03/05 05:55:37;;;;;;;;;41.75;35.25;;;;;8.87;70.39;101572.66;5079961;28;45350;-81
2022/03/05 05:58:02;;;;;;;;;45.75;35.75;;;;;8.87;70.21;101567.38;5080498;27;45370;-81
2022/03/05 06:00:28;;;;;;;;;48.25;38.75;;;;;8.65;70.73;101536.53;5080322;28;46225;-81
2022/03/05 06:02:53;;;;;;;;;43.25;37.00;;;;;8.77;70.34;101559.94;5080579;28;45353;-78
2022/03/05 06:05:18;;;;;;;;;52.75;39.75;;;;;8.61;71.02;101538.16;5072145;28;45291;-78
2022/03/05 06:07:44;;;;;;;;;37.25;33.75;;;;;8.49;70.98;101525.34;5079606;28;45375;-79
2022/03/05 06:10:10;;;;;;;;;44.00;37.25;;;;;8.65;70.37;101547.97;5071909;27;45430;-80
2022/03/05 06:12:36;;;;;;;;;44.50;38.25;;;;;8.81;70.66;101578.56;5080526;27;45510;-80
2022/03/05 06:15:03;;;;;;;;;45.50;35.00;;;;;8.75;70.81;101565.13;5079670;28;46226;-78
2022/03/05 06:17:29;;;;;;;;;41.25;35.50;;;;;8.61;70.71;101542.53;5080444;27;45477;-79
2022/03/05 06:19:54;;;;;;;;;49.75;40.00;;;;;8.47;70.50;101513.84;5071699;27;45453;-75
2022/03/05 06:22:19;;;;;;;;;49.50;37.50;;;;;8.72;70.50;101565.00;5072707;28;46250;-76
2022/03/05 06:24:45;;;;;;;;;41.25;37.00;;;;;8.82;70.77;101575.13;5077083;28;45239;-79
2022/03/05 06:27:10;;;;;;;;;44.00;38.75;;;;;8.83;70.49;101576.00;5073767;27;45169;-78
2022/03/05 06:29:36;;;;;;;;;44.00;35.00;;;;;8.81;70.93;101569.75;5072862;28;45309;-79
2022/03/05 06:32:02;;;;;;;;;51.50;38.50;;;;;8.66;71.18;101556.81;5067940;28;46173;-79
2022/03/05 06:34:27;;;;;;;;;41.25;35.00;;;;;8.63;71.02;101548.78;5076424;28;45428;-80
2022/03/05 06:36:54;;;;;;;;;43.50;34.00;;;;;8.63;70.49;101543.50;5071812;28;45357;-81
2022/03/05 06:39:20;;;;;;;;;35.50;29.75;;;;;8.68;70.95;101558.69;5079503;28;45385;-79
2022/03/05 06:41:45;;;;;;;;;38.50;33.50;;;;;8.61;69.74;101561.88;5073677;27;45445;-88
2022/03/05 06:44:10;;;;;;;;;49.00;40.50;;;;;8.48;71.36;101544.59;5081183;28;45371;-87
2022/03/05 06:46:36;;;;;;;;;46.50;36.50;;;;;8.68;71.56;101584.13;5081214;28;45473;-81
2022/03/05 06:49:01;;;;;;;;;46.25;37.75;;;;;8.44;71.51;101549.69;5079601;27;45414;-82
2022/03/05 06:51:27;;;;;;;;;37.75;32.75;;;;;8.32;71.15;101522.75;5074315;28;45320;-83
2022/03/05 06:53:52;;;;;;;;;49.00;38.25;;;;;8.73;70.69;101593.13;5073843;28;45325;-83
2022/03/05 06:56:17;;;;;;;;;45.50;36.00;;;;;8.69;70.66;101573.66;5079591;28;45393;-82
2022/03/05 06:58:43;;;;;;;;;50.50;38.00;;;;;8.85;70.73;101604.25;5076466;27;45551;-80
2022/03/05 07:01:08;;;;;;;;;45.00;37.00;;;;;8.88;70.71;101609.66;5071589;28;46605;-80
2022/03/05 07:03:33;;;;;;;;;38.00;31.75;;;;;8.91;70.53;101609.78;5076866;28;45382;-81
2022/03/05 07:05:59;;;;;;;;;46.25;37.00;;;;;8.56;70.39;101541.41;5073535;28;45270;-80
2022/03/05 07:08:24;;;;;;;;;50.00;35.00;;;;;8.64;71.07;101564.66;5078232;27;45382;-82
2022/03/05 07:10:49;;;;;;;;;42.50;37.25;;;;;8.90;70.65;101607.97;5071066;28;45267;-82
2022/03/05 07:13:15;;;;;;;;;47.00;36.75;;;;;8.65;69.61;101563.78;5075188;27;44733;-82
2022/03/05 07:15:40;;;;;;;;;47.00;37.00;;;;;8.81;69.84;101606.66;5068256;28;45368;-79
2022/03/05 07:18:06;;;;;;;;;47.50;35.00;;;;;8.78;70.23;101599.53;5074079;28;45213;-82
2022/03/05 07:20:31;;;;;;;;;40.75;36.75;;;;;8.89;69.48;101621.09;5068592;28;45384;-81
2022/03/05 07:22:56;;;;;;;;;49.75;37.75;;;;;8.82;70.14;101621.63;5074652;28;45449;-85
2022/03/05 07:25:23;;;;;;;;;51.75;40.00;;;;;8.55;69.95;101584.44;5071706;27;45485;-82
2022/03/05 07:27:48;;;;;;;;;48.50;39.00;;;;;8.80;70.23;101625.97;5076828;27;45500;-81
2022/03/05 07:30:14;;;;;;;;;50.25;37.50;;;;;8.83;70.48;101628.75;5073744;28;46207;-81
2022/03/05 07:32:39;;;;;;;;;55.50;40.75;;;;;8.70;70.89;101612.34;5077474;28;45842;-83
2022/03/05 07:35:05;;;;;;;;;56.75;42.00;;;;;8.81;70.25;101628.66;5068354;27;45445;-80
2022/03/05 07:37:31;;;;;;;;;55.00;42.75;;;;;8.86;70.00;101636.78;5077599;28;45516;-85
2022/03/05 07:39:57;;;;;;;;;50.50;39.50;;;;;8.80;69.50;101624.22;5078161;28;46850;-84
2022/03/05 07:42:22;;;;;;;;;49.25;39.25;;;;;8.86;69.50;101628.88;5069454;28;45640;-86
2022/03/05 07:44:47;;;;;;;;;51.75;39.25;;;;;8.61;70.70;101592.59;5073610;27;45314;-84
2022/03/05 07:47:13;;;;;;;;;43.75;37.50;;;;;8.80;70.46;101621.59;5077443;28;45446;-81
2022/03/05 07:49:39;;;;;;;;;55.00;41.00;;;;;8.76;70.53;101606.44;5072192;28;45373;-81
2022/03/05 07:52:04;;;;;;;;;50.00;39.50;;;;;8.85;70.21;101619.13;5078685;28;45242;-83
2022/03/05 07:54:30;;;;;;;;;56.75;41.75;;;;;8.79;69.52;101601.31;5065656;28;45284;-82
2022/03/05 07:56:56;;;;;;;;;48.50;38.25;;;;;8.60;69.86;101580.25;5073474;28;45466;-82
2022/03/05 07:59:21;;;;;;;;;53.75;42.25;;;;;8.71;70.68;101601.00;5065847;28;46239;-82
2022/03/05 08:01:46;;;;;;;;;44.25;33.75;;;;;8.78;69.70;101612.69;5076797;28;45374;-80
2022/03/05 08:04:12;;;;;;;;;51.25;42.50;;;;;8.86;69.29;101628.88;5075543;28;45433;-82
2022/03/05 08:06:38;;;;;;;;;48.75;38.00;;;;;8.64;70.09;101606.81;5076960;28;45398;-82
2022/03/05 08:09:03;;;;;;;;;52.25;38.25;;;;;8.72;69.82;101623.88;5070964;28;46278;-82
2022/03/05 08:11:29;;;;;;;;;59.75;41.75;;;;;8.76;69.80;101619.63;5077056;28;45333;-80
2022/03/05 08:13:54;;;;;;;;;50.50;39.00;;;;;9.02;69.61;101659.44;5074695;27;45410;-80
2022/03/05 08:16:19;;;;;;;;;64.50;49.25;;;;;8.95;69.25;101643.34;5066442;27;45395;-81
2022/03/05 08:18:45;;;;;;;;;67.25;49.25;;;;;8.84;69.72;101618.25;5074260;28;46029;-82
2022/03/05 08:21:10;;;;;;;;;58.50;48.50;;;;;9.10;69.59;101661.59;5070749;27;45405;-82
2022/03/05 08:23:36;;;;;;;;;98.67;77.33;;;;;9.00;70.00;101629.47;5080155;28;45366;-81
2022/03/05 08:26:02;;;;;;;;;66.50;50.75;;;;;9.20;69.61;101649.69;5082931;27;45548;-81
2022/03/05 08:28:28;;;;;;;;;88.75;69.25;;;;;9.29;69.41;101651.84;5081680;27;45455;-80
2022/03/05 08:30:53;;;;;;;;;66.75;51.00;;;;;9.35;69.09;101655.66;5073209;27;45359;-81
2022/03/05 08:33:21;;;;;;;;;91.33;74.33;;;;;9.40;69.65;101654.09;5083326;28;45011;-79
2022/03/05 08:35:47;;;;;;;;;74.50;54.00;;;;;9.37;68.85;101631.97;5073430;28;45394;-79
2022/03/05 08:38:12;;;;;;;;;55.25;44.25;;;;;9.55;68.81;101660.84;5082025;28;45803;-75
2022/03/05 08:40:37;;;;;;;;;60.75;49.25;;;;;9.35;68.33;101610.81;5082506;27;45361;-79
2022/03/05 08:43:02;;;;;;;;;60.25;48.50;;;;;9.52;67.82;101644.91;5081374;27;45933;-80
2022/03/05 08:45:28;;;;;;;;;58.50;46.75;;;;;9.34;68.83;101614.25;5076240;27;45359;-80
2022/03/05 08:47:53;;;;;;;;;55.75;43.25;;;;;9.46;67.89;101621.78;5081703;28;46070;-79
2022/03/05 08:50:19;;;;;;;;;60.50;47.00;;;;;9.69;68.27;101657.09;5077339;27;45372;-81
2022/03/05 08:52:44;;;;;;;;;59.00;46.25;;;;;9.46;68.17;101603.31;5080653;27;45807;-79
2022/03/05 08:55:12;;;;;;;;;47.25;38.25;;;;;9.85;67.49;101655.97;5075296;28;45547;-80
2022/03/05 08:57:39;;;;;;;;;54.75;41.00;;;;;9.87;67.62;101646.38;5076114;28;48212;-80
2022/03/05 09:00:07;;;;;;;;;50.50;39.25;;;;;10.06;67.42;101661.22;5073466;28;45253;-81
2022/03/05 09:02:33;;;;;;;;;54.50;44.50;;;;;10.15;66.68;101656.31;5077775;28;45276;-81
2022/03/05 09:04:58;;;;;;;;;88.50;70.00;;;;;10.06;67.67;101638.34;5075634;28;45481;-77
2022/03/05 09:07:24;;;;;;;;;74.25;56.75;;;;;10.26;67.37;101662.00;5080385;27;45715;-79
2022/03/05 09:09:49;;;;;;;;;69.00;51.75;;;;;10.35;66.50;101664.16;5076536;28;45393;-79
2022/03/05 09:12:14;;;;;;;;;65.75;46.25;;;;;10.14;66.49;101613.94;5063349;28;45264;-78
2022/03/05 09:14:40;;;;;;;;;59.25;44.25;;;;;10.37;65.76;101626.38;5077010;28;45544;-79
2022/03/05 09:17:06;;;;;;;;;44.75;36.50;;;;;10.57;65.60;101650.91;5081050;28;45978;-78
2022/03/05 09:19:31;;;;;;;;;63.00;48.50;;;;;10.44;66.49;101609.00;5075271;28;45518;-78
2022/03/05 09:21:56;;;;;;;;;56.25;45.25;;;;;10.50;65.22;101598.63;5072634;28;45403;-78
2022/03/05 09:24:22;;;;;;;;;62.00;45.75;;;;;10.80;65.66;101635.91;5067657;28;45417;-81
2022/03/05 09:26:47;;;;;;;;;50.50;43.00;;;;;10.91;64.36;101642.47;5071378;27;45225;-80
2022/03/05 09:29:12;;;;;;;;;51.75;38.50;;;;;11.10;64.59;101653.75;5081066;28;45504;-80
2022/03/05 09:31:39;;;;;;;;;74.75;59.00;;;;;11.31;64.34;101662.41;5072379;27;45316;-79
2022/03/05 09:34:05;;;;;;;;;69.00;51.75;;;;;11.32;64.38;101640.41;5080347;28;45486;-75
2022/03/05 09:36:31;;;;;;;;;60.25;48.25;;;;;11.58;63.59;101661.59;5075639;27;46141;-78
2022/03/05 09:38:56;;;;;;;;;80.75;63.75;;;;;11.45;62.72;101620.53;5080801;27;45338;-77
2022/03/05 09:41:22;;;;;;;;;58.00;46.00;;;;;11.84;63.39;101663.34;5074921;28;45308;-77
2022/03/05 09:43:47;;;;;;;;;53.00;43.00;;;;;11.84;61.21;101651.84;5080727;28;45435;-78
2022/03/05 09:46:17;;;;;;;;;58.25;44.25;;;;;11.91;62.70;101638.00;5075404;27;46050;-77
2022/03/05 09:48:43;;;;;;;;;55.50;43.25;;;;;12.15;63.22;101660.81;5077238;28;45254;-80
2022/03/05 09:51:08;;;;;;;;;50.00;39.00;;;;;12.21;62.64;101653.06;5070897;28;45197;-79
2022/03/05 09:53:34;;;;;;;;;56.75;44.00;;;;;12.29;62.28;101655.13;5077230;28;47137;-79
2022/03/05 09:55:59;;;;;;;;;55.00;40.75;;;;;12.32;61.90;101646.34;5074002;28;45298;-79
2022/03/05 09:58:24;;;;;;;;;52.50;40.75;;;;;12.41;60.06;101664.31;5079975;27;45398;-79
2022/03/05 10:00:50;;;;;;;;;58.25;44.25;;;;;12.51;60.11;101646.06;5072875;28;45580;-79
2022/03/05 10:03:17;;;;;;;;;57.50;46.50;;;;;12.71;60.29;101645.75;5080401;27;45414;-79
2022/03/05 10:05:42;;;;;;;;;53.75;42.25;;;;;12.85;59.48;101648.78;5072227;27;46974;-79
2022/03/05 10:08:12;;;;;;;;;52.50;43.00;;;;;13.01;61.72;101661.66;5079302;27;45459;-80
2022/03/05 10:10:44;;;;;;;;;56.75;45.00;;;;;13.14;60.55;101654.94;5072830;28;45240;-79
2022/03/05 10:13:30;;;;;;;;;52.25;39.00;;;;;13.20;60.32;101645.38;5077840;27;45988;-80
2022/03/05 10:16:03;;;;;;;;;56.25;45.25;;;;;13.33;60.61;101659.94;5072801;28;47285;-79
2022/03/05 10:18:39;;;;;;;;;55.75;41.50;;;;;13.40;58.54;101647.69;5065454;28;45646;-79
2022/03/05 10:21:09;;;;;;;;;56.25;43.25;;;;;13.41;57.88;101647.75;5069664;28;45433;-79
2022/03/05 10:23:47;;;;;;;;;51.50;43.75;;;;;13.58;59.67;101663.22;5077543;28;46299;-79
2022/03/05 10:26:21;;;;;;;;;54.00;44.25;;;;;13.63;57.75;101650.94;5070740;27;45409;-79
2022/03/05 10:28:46;;;;;;;;;53.75;43.25;;;;;13.70;56.94;101658.22;5080221;28;45437;-79
2022/03/05 10:31:13;;;;;;;;;54.75;44.00;;;;;13.77;58.99;101652.19;5079418;28;45504;-79
2022/03/05 10:33:40;;;;;;;;;61.25;45.50;;;;;13.60;56.87;101617.22;5079964;28;45838;-79
2022/03/05 10:36:23;;;;;;;;;49.25;40.00;;;;;13.82;58.97;101637.25;5072190;27;45439;-79
2022/03/05 10:38:52;;;;;;;;;55.00;44.25;;;;;14.22;56.01;101662.13;5078139;28;45341;-79
2022/03/05 10:41:31;;;;;;;;;59.75;48.25;;;;;14.37;55.02;101626.09;5073295;28;45225;-79
2022/03/05 10:44:23;;;;;;;;;71.00;55.50;;;;;14.81;57.21;101653.69;5079956;28;45410;-79
2022/03/05 10:46:55;;;;;;;;;66.75;55.00;;;;;14.87;55.18;101637.88;5070319;28;45315;-79
2022/03/05 10:49:26;;;;;;;;;52.00;41.50;;;;;14.96;53.99;101607.88;5071599;28;45385;-79
2022/03/05 10:52:05;;;;;;;;;47.25;40.00;;;;;15.43;55.83;101647.78;5074785;28;45303;-80
2022/03/05 10:54:32;;;;;;;;;55.00;43.75;;;;;15.31;51.64;101600.50;5075518;28;46397;-79
2022/03/05 10:57:15;;;;;;;;;68.75;53.75;;;;;15.66;52.71;101640.22;5078573;28;47456;-79
2022/03/05 10:59:43;;;;;;;;;60.75;49.50;;;;;16.02;49.53;101642.63;5077063;28;45464;-80
2022/03/05 11:02:14;;;;;;;;;73.00;60.75;;;;;16.23;51.68;101609.13;5080134;27;45315;-80
2022/03/05 11:04:42;;;;;;;;;58.75;46.25;;;;;16.70;48.44;101630.22;5078275;28;46376;-80
2022/03/05 11:07:08;;;;;;;;;60.50;46.25;;;;;17.02;47.84;101638.63;5080325;28;45265;-80
2022/03/05 11:09:36;;;;;;;;;48.00;39.25;;;;;17.16;48.40;101625.41;5075841;28;45863;-81
2022/03/05 11:12:02;;;;;;;;;55.75;45.00;;;;;17.22;45.04;101621.06;5080743;27;45351;-81
2022/03/05 11:14:28;;;;;;;;;51.25;39.75;;;;;17.43;44.50;101625.69;5076526;28;46076;-80